Time;durP1;ratioP1;P1;durP2;ratioP2;P2;SDS_P1;SDS_P2;PMS_P1;PMS_P2;Temp;Humidity;BMP_temperature;BMP_pressure;BME280_temperature;BME280_humidity;BME280_pressure;Samples;Min_cycle;Max_cycle;Signal;HPM_P1;HPM_P2
2023/04/24 00:00:22;;;;;;;5.30;3.95;;;22.30;55.00;;;;;;4847098;29;20061;-79
2023/04/24 00:02:48;;;;;;;3.65;3.08;;;22.20;55.00;;;;;;4841327;29;20121;-79
2023/04/24 00:05:17;;;;;;;4.35;3.17;;;22.30;55.10;;;;;;4843585;29;20038;-79
2023/04/24 00:07:46;;;;;;;6.50;3.17;;;22.40;55.10;;;;;;4839008;29;20114;-80
2023/04/24 00:10:12;;;;;;;6.20;3.92;;;22.20;55.00;;;;;;4823837;29;20030;-80
2023/04/24 00:12:38;;;;;;;4.90;3.92;;;22.20;55.20;;;;;;4823852;29;20061;-78
2023/04/24 00:15:05;;;;;;;7.55;4.85;;;22.20;55.30;;;;;;4824873;29;20042;-81
2023/04/24 00:17:32;;;;;;;10.10;5.40;;;22.40;55.40;;;;;;4824939;29;20054;-80
2023/04/24 00:19:58;;;;;;;9.43;5.68;;;22.20;55.20;;;;;;4824717;29;20789;-80
2023/04/24 00:22:25;;;;;;;8.75;5.35;;;22.20;55.30;;;;;;4824726;29;20034;-79
2023/04/24 00:24:51;;;;;;;5.63;4.25;;;22.30;55.50;;;;;;4824702;29;20042;-80
2023/04/24 00:27:17;;;;;;;5.55;4.30;;;22.30;55.50;;;;;;4824697;29;20582;-80
2023/04/24 00:29:43;;;;;;;7.88;4.65;;;22.20;55.40;;;;;;4824528;29;20512;-80
2023/04/24 00:32:10;;;;;;;7.43;4.18;;;22.10;55.40;;;;;;4824686;29;20034;-78
2023/04/24 00:34:36;;;;;;;6.28;3.92;;;22.10;55.40;;;;;;4823408;29;20523;-80
2023/04/24 00:37:02;;;;;;;5.05;3.65;;;22.20;55.30;;;;;;4823399;29;20101;-80
2023/04/24 00:39:28;;;;;;;6.03;3.30;;;22.20;55.40;;;;;;4824394;29;20117;-80
2023/04/24 00:41:55;;;;;;;5.93;3.88;;;22.20;55.30;;;;;;4838605;29;20050;-80
2023/04/24 00:44:21;;;;;;;7.45;4.40;;;22.30;55.40;;;;;;4838253;29;20035;-79
2023/04/24 00:46:51;;;;;;;5.15;3.97;;;22.10;55.30;;;;;;4830792;29;20048;-80
2023/04/24 00:49:18;;;;;;;6.05;3.53;;;22.10;55.20;;;;;;4841747;29;20029;-80
2023/04/24 00:51:45;;;;;;;5.82;3.50;;;22.40;55.30;;;;;;4842406;29;20413;-79
2023/04/24 00:54:13;;;;;;;6.00;3.88;;;22.10;55.20;;;;;;4841261;29;20133;-80
2023/04/24 00:56:40;;;;;;;4.32;3.92;;;22.20;55.20;;;;;;4841062;29;20116;-80
2023/04/24 00:59:06;;;;;;;8.18;4.15;;;22.20;55.30;;;;;;4841219;29;20129;-80
2023/04/24 01:01:33;;;;;;;4.97;3.67;;;22.00;55.30;;;;;;4840911;29;20091;-80
2023/04/24 01:03:59;;;;;;;6.15;3.50;;;22.10;55.30;;;;;;4842174;29;20103;-79
2023/04/24 01:06:28;;;;;;;8.32;3.33;;;22.00;55.40;;;;;;4842313;29;20037;-80
2023/04/24 01:08:55;;;;;;;4.57;3.38;;;22.00;55.40;;;;;;4841182;29;20037;-80
2023/04/24 01:11:22;;;;;;;4.10;3.35;;;22.00;55.50;;;;;;4821602;29;20103;-80
2023/04/24 01:13:48;;;;;;;6.07;3.67;;;22.10;55.60;;;;;;4790137;29;20404;-79
2023/04/24 01:16:17;;;;;;;6.32;3.85;;;22.00;55.50;;;;;;4806513;29;20125;-80
2023/04/24 01:18:44;;;;;;;4.45;3.25;;;22.00;55.50;;;;;;4791472;29;20041;-80
2023/04/24 01:21:13;;;;;;;5.72;3.72;;;21.90;55.50;;;;;;4806319;29;20647;-80
2023/04/24 01:23:39;;;;;;;5.53;4.43;;;21.90;55.60;;;;;;4806275;29;20046;-80
2023/04/24 01:26:06;;;;;;;7.32;3.70;;;22.00;55.60;;;;;;4821632;29;20510;-80
2023/04/24 01:28:32;;;;;;;6.00;3.45;;;22.00;55.60;;;;;;4821524;29;20058;-76
2023/04/24 01:30:59;;;;;;;7.82;4.38;;;21.90;55.60;;;;;;4806003;29;20034;-80
2023/04/24 01:33:25;;;;;;;4.72;3.78;;;22.00;55.60;;;;;;4806092;29;20043;-80
2023/04/24 01:35:52;;;;;;;5.97;3.88;;;21.90;55.60;;;;;;4805933;29;20073;-80
2023/04/24 01:38:18;;;;;;;5.05;3.80;;;21.80;55.50;;;;;;4821602;29;20038;-80
2023/04/24 01:40:44;;;;;;;3.88;3.47;;;21.80;55.50;;;;;;4806471;29;20042;-80
2023/04/24 01:43:11;;;;;;;4.13;3.25;;;21.80;55.50;;;;;;4805948;29;20062;-80
2023/04/24 01:45:38;;;;;;;4.20;3.33;;;21.90;55.60;;;;;;4806336;29;20139;-80
2023/04/24 01:48:04;;;;;;;7.70;4.28;;;21.80;55.60;;;;;;4810784;29;20080;-80
2023/04/24 01:50:30;;;;;;;10.10;4.55;;;21.80;55.60;;;;;;4840488;29;20160;-80
2023/04/24 01:52:56;;;;;;;5.07;4.03;;;21.90;55.60;;;;;;4841738;29;20046;-80
2023/04/24 01:55:22;;;;;;;4.10;3.55;;;21.80;55.40;;;;;;4840742;29;20328;-80
2023/04/24 01:57:49;;;;;;;4.10;3.22;;;21.80;55.40;;;;;;4841536;29;20022;-81
2023/04/24 02:00:15;;;;;;;3.58;3.05;;;21.80;55.40;;;;;;4841815;29;20068;-79
2023/04/24 02:02:42;;;;;;;4.63;3.80;;;22.00;55.50;;;;;;4840392;29;20148;-80
2023/04/24 02:05:09;;;;;;;5.40;3.45;;;21.90;55.40;;;;;;4841662;29;20034;-80
2023/04/24 02:07:38;;;;;;;5.45;3.63;;;22.00;55.40;;;;;;4825298;29;20371;-78
2023/04/24 02:10:05;;;;;;;3.42;2.72;;;21.90;55.40;;;;;;4841380;29;20098;-80
2023/04/24 02:12:32;;;;;;;4.05;3.08;;;22.00;55.30;;;;;;4839011;29;20045;-80
2023/04/24 02:14:58;;;;;;;4.47;3.55;;;21.90;55.20;;;;;;4838889;29;20457;-79
2023/04/24 02:17:24;;;;;;;4.68;3.47;;;22.00;55.30;;;;;;4833035;29;20407;-80
2023/04/24 02:19:50;;;;;;;4.43;2.92;;;22.00;55.10;;;;;;4820960;29;20511;-81
2023/04/24 02:22:16;;;;;;;7.30;3.22;;;22.20;55.20;;;;;;4820985;29;20040;-80
2023/04/24 02:24:42;;;;;;;8.90;3.47;;;22.10;55.20;;;;;;4820301;29;20404;-80
2023/04/24 02:27:08;;;;;;;5.05;3.03;;;22.20;55.10;;;;;;4820977;29;20102;-80
2023/04/24 02:29:34;;;;;;;4.30;3.22;;;22.10;55.10;;;;;;4820745;29;20050;-80
2023/04/24 02:32:01;;;;;;;4.85;3.20;;;22.10;55.10;;;;;;4821051;29;20047;-80
2023/04/24 02:34:27;;;;;;;4.15;3.30;;;22.30;55.20;;;;;;4805384;29;20133;-79
2023/04/24 02:36:54;;;;;;;6.05;3.17;;;22.10;55.10;;;;;;4820416;29;20136;-80
2023/04/24 02:39:20;;;;;;;4.75;2.85;;;22.20;54.90;;;;;;4820650;29;20095;-80
2023/04/24 02:41:46;;;;;;;5.40;3.03;;;22.20;54.80;;;;;;4820579;29;20046;-79
2023/04/24 02:44:12;;;;;;;6.63;3.47;;;22.20;54.80;;;;;;4835560;29;20054;-80
2023/04/24 02:46:41;;;;;;;5.57;2.92;;;22.20;54.80;;;;;;4823547;29;20162;-80
2023/04/24 02:49:07;;;;;;;5.75;2.97;;;22.30;54.90;;;;;;4839112;29;20582;-80
2023/04/24 02:51:33;;;;;;;3.25;2.95;;;22.20;54.80;;;;;;4840121;29;20482;-80
2023/04/24 02:53:59;;;;;;;6.97;3.22;;;22.40;54.70;;;;;;4875187;29;20045;-80
2023/04/24 02:56:25;;;;;;;5.20;3.72;;;22.40;54.70;;;;;;4859843;29;20056;-79
2023/04/24 02:58:52;;;;;;;4.97;3.10;;;22.40;54.60;;;;;;4859702;29;20057;-79
2023/04/24 03:01:18;;;;;;;5.80;2.80;;;22.30;54.70;;;;;;4859882;29;20548;-80
2023/04/24 03:03:44;;;;;;;4.05;3.33;;;22.40;54.80;;;;;;4859984;29;20052;-80
2023/04/24 03:06:10;;;;;;;4.75;3.22;;;22.20;54.70;;;;;;4859918;29;20060;-79
2023/04/24 03:08:36;;;;;;;5.30;3.28;;;22.30;54.70;;;;;;4859861;29;20045;-80
2023/04/24 03:11:02;;;;;;;5.43;3.33;;;22.30;54.80;;;;;;4875838;29;20044;-80
2023/04/24 03:13:28;;;;;;;3.30;3.00;;;22.30;54.70;;;;;;4875438;29;20033;-79
2023/04/24 03:15:54;;;;;;;5.03;3.45;;;22.20;54.60;;;;;;4859871;29;20055;-80
2023/04/24 03:18:20;;;;;;;4.03;3.50;;;22.20;54.70;;;;;;4875472;29;20334;-79
2023/04/24 03:20:49;;;;;;;9.35;3.13;;;22.30;55.00;;;;;;4859773;29;20045;-80
2023/04/24 03:23:15;;;;;;;3.78;3.15;;;22.20;54.80;;;;;;4874951;29;20041;-79
2023/04/24 03:25:42;;;;;;;5.20;3.05;;;22.40;54.80;;;;;;4859850;29;20053;-80
2023/04/24 03:28:10;;;;;;;6.88;3.30;;;22.30;54.60;;;;;;4859812;29;20041;-80
2023/04/24 03:30:46;;;;;;;4.47;2.95;;;22.40;54.30;;;;;;4852540;29;20510;-79
2023/04/24 03:33:13;;;;;;;5.25;2.83;;;22.50;54.30;;;;;;4854693;29;20398;-80
2023/04/24 03:35:48;;;;;;;6.28;3.03;;;22.60;54.00;;;;;;4854682;29;20053;-81
2023/04/24 03:38:14;;;;;;;3.50;2.72;;;22.70;53.90;;;;;;4827319;29;20038;-79
2023/04/24 03:41:06;;;;;;;3.45;2.88;;;22.60;53.70;;;;;;4805050;29;20135;-80
2023/04/24 03:43:43;;;;;;;8.40;3.95;;;22.70;53.70;;;;;;4805509;29;20498;-81
2023/04/24 03:46:10;;;;;;;4.03;3.63;;;22.70;53.60;;;;;;4805309;29;20055;-80
2023/04/24 03:48:40;;;;;;;4.60;3.25;;;22.80;53.50;;;;;;4789892;29;20054;-80
2023/04/24 03:51:08;;;;;;;4.93;2.80;;;22.70;53.70;;;;;;4804932;29;20424;-80
2023/04/24 03:53:36;;;;;;;3.30;2.67;;;22.80;53.90;;;;;;4804937;29;20130;-81
2023/04/24 03:56:02;;;;;;;3.30;2.35;;;22.80;53.70;;;;;;4804745;29;20862;-81
2023/04/24 03:58:29;;;;;;;3.10;2.63;;;22.80;53.50;;;;;;4804885;29;20065;-80
2023/04/24 04:00:57;;;;;;;3.53;3.03;;;22.80;53.40;;;;;;4804652;29;20098;-79
2023/04/24 04:03:43;;;;;;;4.53;3.38;;;22.80;53.30;;;;;;4804741;29;20384;-81
2023/04/24 04:06:11;;;;;;;4.28;3.17;;;22.90;53.40;;;;;;4804610;29;20066;-81
2023/04/24 04:08:37;;;;;;;4.35;3.38;;;22.90;53.40;;;;;;4786121;29;20043;-80
2023/04/24 04:11:04;;;;;;;5.40;2.67;;;22.90;53.30;;;;;;4804318;29;20047;-79
2023/04/24 04:13:30;;;;;;;4.15;3.03;;;22.90;53.40;;;;;;4789354;29;20045;-75
2023/04/24 04:15:57;;;;;;;2.78;2.58;;;23.00;53.50;;;;;;4804032;29;20112;-74
2023/04/24 04:18:23;;;;;;;3.55;2.30;;;22.90;55.60;;;;;;4830500;29;20072;-77
2023/04/24 04:20:49;;;;;;;4.10;3.70;;;23.10;57.10;;;;;;4841676;29;20042;-73
2023/04/24 04:23:16;;;;;;;7.57;3.38;;;23.30;58.20;;;;;;4841518;29;20033;-72
2023/04/24 04:26:03;;;;;;;4.60;3.38;;;23.40;58.20;;;;;;4842417;29;20559;-72
2023/04/24 04:28:40;;;;;;;9.20;3.47;;;23.40;57.40;;;;;;4830415;29;20102;-73
2023/04/24 04:31:07;;;;;;;5.43;4.10;;;23.40;57.80;;;;;;4838323;29;20064;-75
2023/04/24 04:33:35;;;;;;;5.03;3.15;;;23.60;56.40;;;;;;4823551;29;20069;-75
2023/04/24 04:36:03;;;;;;;5.10;3.33;;;23.40;53.10;;;;;;4839000;29;20073;-78
2023/04/24 04:38:30;;;;;;;3.67;3.17;;;23.50;52.00;;;;;;4839033;29;20037;-77
2023/04/24 04:41:12;;;;;;;7.38;3.33;;;23.40;51.20;;;;;;4839348;29;20045;-78
2023/04/24 04:43:40;;;;;;;4.18;3.38;;;23.30;51.40;;;;;;4839012;29;20069;-77
2023/04/24 04:46:08;;;;;;;5.07;3.40;;;23.30;51.80;;;;;;4839037;29;20502;-79
2023/04/24 04:49:00;;;;;;;3.63;2.83;;;23.30;52.30;;;;;;4838863;29;20037;-78
2023/04/24 04:51:26;;;;;;;3.75;3.00;;;23.20;52.70;;;;;;4824979;29;20026;-78
2023/04/24 04:53:52;;;;;;;9.35;3.83;;;23.20;53.00;;;;;;4843003;29;20034;-77
2023/04/24 04:56:19;;;;;;;6.60;3.03;;;23.20;53.30;;;;;;4841675;29;20053;-81
2023/04/24 04:58:45;;;;;;;7.70;3.83;;;23.10;53.40;;;;;;4841174;29;20093;-79
2023/04/24 05:01:15;;;;;;;5.18;3.38;;;23.10;53.60;;;;;;4856997;29;20045;-78
2023/04/24 05:03:45;;;;;;;4.28;3.55;;;23.20;53.60;;;;;;4826769;29;20458;-79
2023/04/24 05:06:13;;;;;;;5.00;3.50;;;23.30;53.50;;;;;;4841224;29;20049;-79
2023/04/24 05:08:40;;;;;;;7.95;4.00;;;23.20;53.40;;;;;;4841341;29;20058;-76
2023/04/24 05:11:09;;;;;;;8.15;3.83;;;23.40;51.30;;;;;;4840819;29;20117;-72
2023/04/24 05:13:37;;;;;;;4.03;2.63;;;23.20;49.70;;;;;;4840461;29;20038;-72
2023/04/24 05:16:06;;;;;;;3.50;2.80;;;23.20;48.00;;;;;;4824953;29;20108;-72
2023/04/24 05:18:33;;;;;;;4.57;2.85;;;23.10;47.40;;;;;;4825289;29;20038;-73
2023/04/24 05:21:01;;;;;;;5.93;3.08;;;23.00;47.30;;;;;;4855954;29;20077;-72
2023/04/24 05:23:27;;;;;;;7.65;3.35;;;23.00;49.00;;;;;;4841813;29;20041;-72
2023/04/24 05:25:55;;;;;;;5.97;3.33;;;23.10;48.40;;;;;;4840324;29;21016;-72
2023/04/24 05:28:21;;;;;;;4.88;2.60;;;23.10;48.30;;;;;;4840242;29;20383;-71
2023/04/24 05:30:59;;;;;;;10.23;4.03;;;23.10;51.30;;;;;;4840218;29;20458;-71
2023/04/24 05:33:25;;;;;;;8.30;4.43;;;23.00;48.60;;;;;;4840267;29;20506;-73
2023/04/24 05:35:51;;;;;;;6.30;4.03;;;23.10;48.70;;;;;;4855500;29;20068;-71
2023/04/24 05:38:19;;;;;;;7.18;4.20;;;23.00;49.30;;;;;;4839986;29;20129;-72
2023/04/24 05:40:45;;;;;;;10.30;3.30;;;23.10;49.40;;;;;;4840283;29;20038;-72
2023/04/24 05:43:12;;;;;;;7.95;4.43;;;23.00;48.80;;;;;;4841079;29;20038;-72
2023/04/24 05:45:38;;;;;;;10.95;4.97;;;23.00;49.10;;;;;;4841173;29;20042;-71
2023/04/24 05:48:05;;;;;;;5.20;3.25;;;22.90;49.30;;;;;;4841318;29;20044;-73
2023/04/24 05:50:32;;;;;;;4.82;3.08;;;22.90;50.20;;;;;;4825328;29;20121;-71
2023/04/24 05:52:58;;;;;;;9.77;4.07;;;23.10;47.90;;;;;;4841324;29;20034;-72
2023/04/24 05:55:31;;;;;;;6.00;4.40;;;23.10;48.00;;;;;;4823950;29;20106;-72
2023/04/24 05:57:57;;;;;;;4.32;3.63;;;23.10;48.40;;;;;;4839601;29;20059;-74
2023/04/24 06:00:25;;;;;;;5.72;4.25;;;23.20;49.70;;;;;;4852763;29;20062;-73
2023/04/24 06:03:00;;;;;;;5.05;4.00;;;23.30;53.90;;;;;;4839803;29;20050;-74
2023/04/24 06:05:27;;;;;;;4.47;4.07;;;23.40;54.20;;;;;;4855113;29;20037;-75
2023/04/24 06:07:53;;;;;;;5.53;3.45;;;23.40;54.20;;;;;;4840287;29;20063;-75
2023/04/24 06:10:21;;;;;;;9.55;4.05;;;23.40;54.90;;;;;;4855283;29;20156;-74
2023/04/24 06:12:49;;;;;;;9.35;3.85;;;23.50;55.20;;;;;;4840248;29;20398;-75
2023/04/24 06:15:17;;;;;;;6.60;3.75;;;23.40;55.30;;;;;;4854989;29;20057;-76
2023/04/24 06:17:57;;;;;;;6.03;3.42;;;23.40;52.60;;;;;;4830401;29;20030;-75
2023/04/24 06:20:24;;;;;;;7.57;3.75;;;23.30;55.10;;;;;;4849850;29;20163;-76
2023/04/24 06:22:50;;;;;;;5.60;3.15;;;23.40;55.40;;;;;;4833238;29;20049;-76
2023/04/24 06:25:16;;;;;;;3.63;3.15;;;23.30;55.60;;;;;;4849392;29;20067;-76
2023/04/24 06:27:43;;;;;;;6.50;4.00;;;23.50;55.70;;;;;;4847965;29;20397;-74
2023/04/24 06:30:09;;;;;;;3.20;2.88;;;23.50;55.40;;;;;;4845510;29;20069;-72
2023/04/24 06:32:35;;;;;;;5.35;3.28;;;23.60;55.30;;;;;;4848234;29;20226;-75
2023/04/24 06:35:01;;;;;;;3.42;3.13;;;23.40;54.50;;;;;;4815314;29;20082;-74
2023/04/24 06:37:27;;;;;;;5.13;3.30;;;23.40;55.00;;;;;;4844659;29;20037;-73
2023/04/24 06:39:53;;;;;;;5.40;3.97;;;23.40;55.20;;;;;;4844653;29;20050;-73
2023/04/24 06:42:21;;;;;;;5.50;3.88;;;23.50;55.60;;;;;;4847223;29;20045;-74
2023/04/24 06:44:49;;;;;;;5.15;2.67;;;23.60;54.50;;;;;;4826934;29;20053;-70
2023/04/24 06:47:15;;;;;;;6.57;3.35;;;23.50;55.30;;;;;;4827029;29;20058;-75
2023/04/24 06:49:42;;;;;;;5.63;3.10;;;23.50;54.80;;;;;;4826730;29;20076;-71
2023/04/24 06:52:08;;;;;;;5.47;3.70;;;23.60;55.30;;;;;;4814463;29;20054;-72
2023/04/24 06:54:34;;;;;;;4.85;4.28;;;23.50;55.40;;;;;;4813814;29;20698;-72
2023/04/24 06:57:00;;;;;;;4.53;3.47;;;23.50;55.30;;;;;;4812252;29;20072;-72
2023/04/24 06:59:28;;;;;;;5.07;2.97;;;23.50;55.20;;;;;;4814655;29;20206;-71
2023/04/24 07:01:54;;;;;;;7.60;3.60;;;23.70;55.60;;;;;;4819351;29;20677;-73
2023/04/24 07:04:20;;;;;;;8.38;3.88;;;23.60;55.40;;;;;;4788536;29;20059;-74
2023/04/24 07:06:47;;;;;;;5.03;3.17;;;23.70;54.60;;;;;;4813773;29;20097;-73
2023/04/24 07:09:13;;;;;;;10.70;3.13;;;23.70;55.40;;;;;;4801222;29;20039;-73
2023/04/24 07:11:40;;;;;;;7.18;3.10;;;23.70;55.40;;;;;;4810998;29;20142;-74
2023/04/24 07:14:07;;;;;;;2.40;2.20;;;23.70;56.10;;;;;;4792260;29;20077;-73
2023/04/24 07:16:33;;;;;;;8.02;2.80;;;23.70;55.80;;;;;;4821995;29;20138;-73
2023/04/24 07:18:59;;;;;;;7.05;2.70;;;23.70;55.80;;;;;;4822330;29;20107;-73
2023/04/24 07:21:25;;;;;;;2.80;1.77;;;23.70;55.70;;;;;;4822322;29;20562;-72
2023/04/24 07:23:51;;;;;;;6.95;2.58;;;23.70;55.60;;;;;;4821972;29;20026;-72
2023/04/24 07:26:17;;;;;;;3.33;2.55;;;23.80;55.20;;;;;;4836626;29;20046;-72
2023/04/24 07:28:43;;;;;;;3.72;2.33;;;23.70;54.50;;;;;;4843455;29;20054;-75
2023/04/24 07:31:11;;;;;;;2.78;2.15;;;23.70;54.00;;;;;;4817157;29;20038;-71
2023/04/24 07:33:38;;;;;;;4.85;2.42;;;23.80;54.70;;;;;;4824954;29;20091;-72
2023/04/24 07:36:04;;;;;;;4.18;2.03;;;23.80;55.50;;;;;;4825045;29;20402;-73
2023/04/24 07:38:30;;;;;;;1.20;1.10;;;23.90;55.50;;;;;;4825283;29;20090;-74
2023/04/24 07:40:57;;;;;;;12.07;3.08;;;23.80;55.50;;;;;;4825165;29;20126;-74
2023/04/24 07:43:23;;;;;;;4.43;2.70;;;23.70;53.70;;;;;;4825361;29;20030;-74
2023/04/24 07:45:52;;;;;;;5.75;3.17;;;23.80;54.20;;;;;;4824948;29;20133;-75
2023/04/24 07:48:18;;;;;;;8.07;5.30;;;23.70;54.00;;;;;;4824785;29;20169;-74
2023/04/24 07:50:45;;;;;;;12.70;5.65;;;23.70;54.50;;;;;;4838940;29;20117;-75
2023/04/24 07:53:11;;;;;;;13.13;9.07;;;23.70;57.30;;;;;;4837039;29;20495;-75
2023/04/24 07:55:38;;;;;;;14.30;8.13;;;23.70;57.80;;;;;;4843152;29;20111;-73
2023/04/24 07:58:04;;;;;;;10.27;5.30;;;23.70;57.80;;;;;;4857303;29;20037;-72
2023/04/24 08:00:30;;;;;;;18.27;12.00;;;23.70;57.50;;;;;;4843118;29;20064;-75
2023/04/24 08:02:56;;;;;;;15.38;8.82;;;23.70;58.10;;;;;;4843106;29;20038;-73
2023/04/24 08:05:22;;;;;;;9.70;5.45;;;23.70;58.40;;;;;;4840583;29;20121;-72
2023/04/24 08:07:50;;;;;;;9.32;5.90;;;23.60;57.20;;;;;;4842782;29;20113;-71
2023/04/24 08:10:16;;;;;;;12.77;6.35;;;23.70;56.40;;;;;;4842914;29;20384;-74
2023/04/24 08:12:42;;;;;;;9.10;6.10;;;23.70;55.10;;;;;;4842833;29;20049;-73
2023/04/24 08:15:08;;;;;;;1.98;1.85;;;23.60;54.90;;;;;;4842655;29;20046;-72
2023/04/24 08:17:35;;;;;;;4.38;2.75;;;23.60;53.90;;;;;;4841479;29;20046;-73
2023/04/24 08:20:03;;;;;;;10.30;3.50;;;23.60;54.20;;;;;;4841646;29;20037;-73
2023/04/24 08:22:30;;;;;;;6.30;4.00;;;23.70;60.20;;;;;;4841101;29;20045;-73
2023/04/24 08:24:57;;;;;;;7.88;3.33;;;23.70;67.90;;;;;;4856844;29;20041;-73
2023/04/24 08:27:26;;;;;;;2.78;2.30;;;23.80;62.30;;;;;;4842746;29;20033;-73
2023/04/24 08:29:55;;;;;;;3.78;2.45;;;23.90;59.20;;;;;;4842385;29;20030;-74
2023/04/24 08:32:21;;;;;;;2.80;2.40;;;23.70;57.20;;;;;;4842782;29;20078;-72
2023/04/24 08:34:47;;;;;;;4.70;3.17;;;24.00;56.60;;;;;;4832869;29;20045;-74
2023/04/24 08:37:13;;;;;;;4.43;1.80;;;23.90;56.40;;;;;;4824312;29;20042;-71
2023/04/24 08:39:39;;;;;;;3.03;2.40;;;23.90;56.30;;;;;;4824121;29;20038;-72
2023/04/24 08:42:07;;;;;;;1.40;1.30;;;23.90;55.90;;;;;;4823929;29;20050;-71
2023/04/24 08:44:35;;;;;;;2.60;2.20;;;24.00;55.50;;;;;;4824019;29;20774;-71
2023/04/24 08:47:05;;;;;;;2.70;2.47;;;24.10;54.50;;;;;;4824053;29;20410;-71
2023/04/24 08:49:32;;;;;;;2.72;2.47;;;24.10;54.80;;;;;;4823789;29;20035;-71
2023/04/24 08:51:59;;;;;;;4.05;1.50;;;24.10;54.20;;;;;;4823680;29;20399;-71
2023/04/24 08:54:26;;;;;;;3.60;2.45;;;24.10;52.50;;;;;;4852103;29;20487;-74
2023/04/24 08:56:54;;;;;;;1.73;1.08;;;24.10;52.80;;;;;;4841761;29;20045;-72
2023/04/24 08:59:21;;;;;;;3.13;1.33;;;24.20;51.90;;;;;;4840807;29;20044;-71
2023/04/24 09:01:49;;;;;;;2.00;1.85;;;24.10;52.40;;;;;;4842250;29;20033;-72
2023/04/24 09:04:17;;;;;;;2.75;2.35;;;24.00;53.60;;;;;;4840749;29;20042;-72
2023/04/24 09:06:44;;;;;;;2.10;1.90;;;24.10;51.70;;;;;;4841841;29;20042;-74
2023/04/24 09:09:11;;;;;;;1.88;1.75;;;24.10;50.20;;;;;;4841858;29;20041;-72
2023/04/24 09:11:37;;;;;;;2.00;1.83;;;24.10;49.00;;;;;;4840404;29;20117;-70
2023/04/24 09:14:04;;;;;;;2.90;2.13;;;24.00;50.90;;;;;;4841626;29;20049;-71
2023/04/24 09:16:33;;;;;;;5.38;3.33;;;24.10;51.40;;;;;;4841713;29;20046;-75
2023/04/24 09:18:59;;;;;;;2.40;2.13;;;24.30;49.00;;;;;;4842067;29;20042;-74
2023/04/24 09:21:35;;;;;;;2.50;2.30;;;24.40;46.30;;;;;;4841926;29;20082;-76
2023/04/24 09:24:22;;;;;;;1.50;1.40;;;24.20;45.90;;;;;;4839724;29;20580;-74
2023/04/24 09:26:49;;;;;;;9.88;2.80;;;24.10;46.70;;;;;;4825293;29;20825;-72
2023/04/24 09:29:18;;;;;;;4.32;2.25;;;24.00;48.60;;;;;;4840637;29;20042;-71
2023/04/24 09:31:45;;;;;;;3.88;2.58;;;24.10;49.50;;;;;;4836939;29;20030;-72
2023/04/24 09:34:12;;;;;;;9.50;4.07;;;24.00;50.30;;;;;;4822254;29;20046;-71
2023/04/24 09:36:40;;;;;;;5.53;2.22;;;24.10;50.60;;;;;;4831721;29;20066;-72
2023/04/24 09:39:10;;;;;;;2.85;2.53;;;24.10;51.20;;;;;;4841228;29;20129;-69
2023/04/24 09:41:57;;;;;;;3.42;2.25;;;24.10;51.70;;;;;;4824988;29;20045;-71
2023/04/24 09:44:26;;;;;;;6.68;2.90;;;24.10;51.50;;;;;;4841216;29;20030;-71
2023/04/24 09:46:59;;;;;;;6.18;2.65;;;24.20;48.40;;;;;;4839910;29;20042;-72
2023/04/24 09:49:30;;;;;;;5.80;2.75;;;24.20;49.00;;;;;;4840838;29;20041;-71
2023/04/24 09:52:06;;;;;;;7.63;2.97;;;24.20;51.40;;;;;;4841237;29;20048;-70
2023/04/24 09:54:33;;;;;;;6.28;2.50;;;24.40;52.10;;;;;;4840607;29;20077;-72
2023/04/24 09:57:02;;;;;;;4.00;3.22;;;24.50;47.60;;;;;;4837949;29;20051;-72
2023/04/24 09:59:29;;;;;;;7.55;3.50;;;24.50;47.50;;;;;;4840397;29;20062;-72
2023/04/24 10:01:56;;;;;;;7.50;3.88;;;24.60;48.20;;;;;;4841095;29;20143;-71
2023/04/24 10:04:24;;;;;;;5.05;3.05;;;24.50;47.40;;;;;;4840891;29;20506;-72
2023/04/24 10:06:52;;;;;;;5.30;2.70;;;24.60;47.10;;;;;;4840830;29;20190;-74
2023/04/24 10:09:19;;;;;;;3.38;2.90;;;24.60;46.20;;;;;;4840796;29;20090;-73
2023/04/24 10:11:47;;;;;;;4.68;2.45;;;24.60;46.60;;;;;;4840609;29;20038;-71
2023/04/24 10:14:18;;;;;;;3.83;2.15;;;24.60;46.50;;;;;;4840470;29;20037;-71
2023/04/24 10:16:46;;;;;;;5.43;2.33;;;24.50;47.30;;;;;;4840711;29;20038;-71
2023/04/24 10:19:14;;;;;;;6.70;2.33;;;24.60;48.90;;;;;;4840523;29;20137;-74
2023/04/24 10:21:42;;;;;;;3.80;2.47;;;24.50;48.10;;;;;;4839216;29;20117;-74
2023/04/24 10:24:09;;;;;;;2.97;1.58;;;24.70;49.30;;;;;;4840560;29;20038;-72
2023/04/24 10:26:37;;;;;;;4.30;1.92;;;24.80;51.40;;;;;;4839408;29;20045;-75
2023/04/24 10:29:09;;;;;;;3.72;2.60;;;24.80;52.70;;;;;;4832203;29;20038;-72
2023/04/24 10:31:37;;;;;;;3.92;2.80;;;24.80;52.90;;;;;;4841257;29;20057;-73
2023/04/24 10:34:05;;;;;;;3.08;2.58;;;24.70;52.90;;;;;;4840817;29;20124;-73
2023/04/24 10:36:36;;;;;;;6.43;2.78;;;24.70;50.60;;;;;;4840404;29;20114;-73
2023/04/24 10:39:08;;;;;;;5.18;2.63;;;24.70;49.20;;;;;;4837822;29;20082;-76
2023/04/24 10:41:37;;;;;;;6.05;2.90;;;24.60;50.90;;;;;;4838034;29;20050;-73
2023/04/24 10:44:12;;;;;;;2.97;2.22;;;24.50;52.20;;;;;;4838254;29;20050;-74
2023/04/24 10:46:40;;;;;;;8.07;2.35;;;24.70;51.70;;;;;;4825389;29;20137;-73
2023/04/24 10:49:08;;;;;;;4.07;2.33;;;24.60;52.80;;;;;;4830847;29;20544;-73
2023/04/24 10:51:52;;;;;;;3.65;2.33;;;24.70;52.80;;;;;;4823307;29;20103;-74
2023/04/24 10:54:26;;;;;;;7.22;3.03;;;24.70;53.00;;;;;;4823297;29;20046;-72
2023/04/24 10:56:53;;;;;;;5.50;1.67;;;24.70;51.70;;;;;;4823070;29;20053;-73
2023/04/24 10:59:26;;;;;;;2.72;2.30;;;24.60;50.20;;;;;;4823047;29;20391;-73
2023/04/24 11:01:55;;;;;;;5.20;2.30;;;24.50;52.30;;;;;;4808450;29;20069;-73
2023/04/24 11:04:33;;;;;;;6.18;2.53;;;24.70;53.10;;;;;;4823441;29;20468;-74
2023/04/24 11:07:00;;;;;;;4.63;2.42;;;24.60;52.60;;;;;;4823624;29;20077;-74
2023/04/24 11:09:31;;;;;;;3.33;2.38;;;24.60;52.10;;;;;;4823810;29;20069;-72
2023/04/24 11:12:11;;;;;;;7.97;2.25;;;24.60;52.30;;;;;;4825408;29;20038;-74
2023/04/24 11:14:56;;;;;;;3.78;1.98;;;24.60;53.60;;;;;;4825400;29;20038;-73
2023/04/24 11:17:40;;;;;;;3.85;2.42;;;24.50;53.30;;;;;;4825769;29;20049;-74
2023/04/24 11:20:09;;;;;;;2.97;2.67;;;24.50;53.70;;;;;;4824175;29;20091;-74
2023/04/24 11:22:39;;;;;;;5.80;2.15;;;24.60;49.20;;;;;;4825414;29;20125;-74
2023/04/24 11:25:06;;;;;;;1.25;1.15;;;24.50;51.40;;;;;;4825463;29;20037;-77
2023/04/24 11:27:40;;;;;;;3.10;2.38;;;24.50;53.80;;;;;;4825925;29;20117;-72
2023/04/24 11:30:07;;;;;;;4.53;2.83;;;24.50;54.00;;;;;;4824154;29;20094;-73
2023/04/24 11:32:33;;;;;;;4.70;2.42;;;24.40;50.10;;;;;;4851882;29;20034;-74
2023/04/24 11:35:03;;;;;;;5.32;2.25;;;24.50;49.90;;;;;;4843718;29;20040;-72
2023/04/24 11:37:38;;;;;;;3.85;2.65;;;24.30;53.10;;;;;;4842266;29;20494;-71
2023/04/24 11:40:06;;;;;;;10.32;2.80;;;24.30;52.20;;;;;;4843525;29;20535;-73
2023/04/24 11:42:36;;;;;;;7.22;2.85;;;24.30;55.80;;;;;;4843918;29;20038;-79
2023/04/24 11:45:06;;;;;;;3.67;2.60;;;24.40;56.40;;;;;;4843811;29;20061;-73
2023/04/24 11:47:33;;;;;;;5.75;2.38;;;24.50;52.20;;;;;;4843578;29;20103;-74
2023/04/24 11:50:00;;;;;;;3.78;1.77;;;24.40;55.70;;;;;;4842237;29;20395;-75
2023/04/24 11:52:27;;;;;;;2.45;2.10;;;24.50;55.30;;;;;;4843217;29;20038;-73
2023/04/24 11:54:53;;;;;;;4.25;2.30;;;24.50;54.40;;;;;;4839278;29;20041;-75
2023/04/24 11:57:20;;;;;;;2.97;2.33;;;24.40;49.50;;;;;;4823984;29;20031;-74
2023/04/24 11:59:47;;;;;;;4.32;2.13;;;24.50;46.00;;;;;;4825058;29;20066;-75
2023/04/24 12:02:26;;;;;;;1.92;1.73;;;24.50;45.30;;;;;;4824628;29;20030;-71
2023/04/24 12:04:53;;;;;;;3.38;2.40;;;24.60;49.70;;;;;;4824868;29;20061;-74
2023/04/24 12:07:19;;;;;;;4.57;2.00;;;24.50;49.00;;;;;;4824752;29;20122;-73
2023/04/24 12:09:56;;;;;;;4.10;1.92;;;24.60;47.80;;;;;;4824757;29;20038;-74
2023/04/24 12:12:25;;;;;;;3.17;2.20;;;24.50;49.80;;;;;;4824558;29;20062;-74
2023/04/24 12:14:56;;;;;;;2.75;1.55;;;24.50;48.30;;;;;;4823633;29;20038;-75
2023/04/24 12:17:33;;;;;;;5.47;1.77;;;24.50;49.20;;;;;;4824928;29;20046;-77
2023/04/24 12:20:02;;;;;;;8.95;3.00;;;24.50;48.50;;;;;;4824512;29;20038;-72
2023/04/24 12:22:44;;;;;;;3.03;2.25;;;24.50;41.50;;;;;;4825249;29;20125;-71
2023/04/24 12:25:10;;;;;;;2.22;2.05;;;24.60;42.10;;;;;;4824164;29;20053;-74
2023/04/24 12:27:36;;;;;;;2.63;1.98;;;24.50;44.10;;;;;;4822855;29;20044;-72
2023/04/24 12:30:05;;;;;;;4.32;1.95;;;24.50;47.70;;;;;;4824431;29;20035;-71
2023/04/24 12:32:31;;;;;;;4.13;2.03;;;24.50;47.80;;;;;;4836473;29;20571;-72
2023/04/24 12:34:58;;;;;;;1.80;1.70;;;24.50;44.40;;;;;;4841318;29;20382;-73
2023/04/24 12:37:25;;;;;;;2.15;2.03;;;24.30;44.40;;;;;;4842798;29;20050;-75
2023/04/24 12:40:10;;;;;;;4.78;2.50;;;24.50;46.30;;;;;;4842660;29;20065;-74
2023/04/24 12:42:45;;;;;;;4.07;2.83;;;24.40;41.40;;;;;;4841934;29;20050;-77
2023/04/24 12:45:13;;;;;;;3.33;2.78;;;24.50;46.70;;;;;;4843383;29;20654;-77
2023/04/24 12:47:40;;;;;;;0.60;0.60;;;24.40;46.20;;;;;;4843684;29;20038;-77
2023/04/24 12:50:14;;;;;;;2.63;1.83;;;24.40;46.30;;;;;;4827229;29;20040;-76